Relevés horaires Sion (Suisse)


Relevés horaires à Sion - Dimanche 15 Avr. 2007
Heure UTC1 Température [°C] Vent [km/h] Hum. [%] Pres.4 [hPa] Visi. [Km] Nébu. [octa] Préc.5 [mm] Cond.
2m. Res. Ros. Dir.2 Vit. Moy. Raf.3
23:00 14.2 14.2 3.8 E 1.9 5.6 5.6 50 1020(1.6/3h) -- -- -- --
22:00 14.2 14.2 4.1 E 3.7 7.4 11.1 51 1019.5(2.0/3h) -- -- -- --
21:00 15.2 15.2 4.7 SSO 1.9 25.9 37.0 49 1018.8(2.1/3h) 25 0/8 -- --
20:00 19.1 19.1 3.7 E 3.7 16.7 25.9 36 1017.3(2.0/3h) -- -- -- --
19:00 22.2 22.2 2.5 SO 13.0 25.9 37.0 27 1015.8(1.0/3h) -- -- -- --
18:00 22.0 22.0 6.5 OSO 20.4 25.9 37.0 37 1015.2(0.2/3h) 25 0/8 0/0h
--
17:00 24.5 24.5 6.6 OSO 24.1 25.9 37.0 32 1014.1(-0.8/3h) -- -- -- --
16:00 26.0 26.0 1.8 OSO 22.2 24.1 33.3 21 1013.9(-1.4/3h) -- -- -- --
15:00 26.4 26.4 3.7 OSO 22.2 22.2 29.6 23 1014.1(-2.1/3h) 27 0/8 -- --
14:00 26.8 26.8 -0.3 O 11.1 11.1 20.4 17 1014.5(-2.8/3h) -- -- -- --
13:00 25.4 25.4 -0.1 SO 9.3 9.3 16.7 19 1015.5(-3.1/3h) -- -- -- --
12:00 23.9 23.9 0.8 SO 3.7 9.3 13.0 22 1016.8(-3.0/3h) -- -- 0/0h
--
11:00 21.6 21.6 -0.9 ENE 1.9 3.7 7.4 22 1018.5(-2.3/3h) -- -- -- --
10:00 19.6 19.6 1.1 ONO 1.9 9.3 13.0 29 1020(-1.7/3h) -- -- -- --
09:00 17.9 17.9 4.3 E 3.7 9.3 13.0 40 1021.2(-0.8/3h) -- -- -- --
08:00 14.5 14.4 2.9 ENE 7.4 7.4 11.1 46 1022.4(-0.1/3h) -- -- -- --
07:00 11.9 11.9 3.0 E 3.7 5.6 7.4 54 1023.4(0.5/3h) -- -- -- --
06:00 8.5 8.5 2.0 ENE 1.9 -- -- 64 1024 20 0/8 -- --
05:00 6.9 6.9 2.4 E 1.9 -- -- 73 1024.2 -- -- -- --
04:00 8.5 8.5 2.4 SE 3.7 -- -- 65 1023.6 -- -- -- --
03:00 9.8 9.4 1.2 E 5.6 -- -- 55 1023.2 25 0/8 -- --
02:00 8.0 8.0 2.0 ENE 3.7 -- -- 66 1023.5 -- -- -- --
01:00 11.7 11.7 1.4 ENE 3.7 -- -- 49 1022.7 -- -- -- --
00:00 12.0 12.0 1.1 E 3.7 18.5 33.3 47 1022.5(1.4/3h) -- -- 0/0h
--

1 Coordinated Universal Time. Actuellement il est 04:00 locale et 02:00 UTC.

2 Le vent souffle depuis la direction indiquée vers la direction oposée.

3 Les rafales max. sont disponible 40 min après l'heure du relevé.

4 Pour les stations d'altitude (plus de 600m) le géopotentiel du niveau le plus proche de la pression obligatoire est indiqué.

5 Les stations disposant d'un diffuseur peuvent indiquer "trace". Cela signifie que des précipitations ont touchés le sol mais que la quantité est inférieure à 0.1 mm.

Copyright

Les données affichées sur cette page sont la propriété exclusive de Météo Suisse.

Récapitulatif de la journée
Température [°C] Vent [km/h] Ensoleillement4 [h] Precipitations totale5 [mm] Pression [Hpa]
Min1 Max.2 Moy.3 Max. Min Max.
-- 26.9 14.6 37.0 11 h 54 min 0 1013.9 1024.2

1 Température minimale relevée entre 18:00 UTC la veille et 18:00 UTC le jour donné.

2 Température maximale relevée entre 06:00 UTC le jour donné et 06:00 UTC le lendemain.

3 Vent moyen de la journée basé sur les relevés horaires.

4 Ensoleillement en heures relevé entre 06:00 UTC la veille et 06:00 UTC le jour donné.

5 Précipitations totales tombées entre 06:00 UTC la jour donné et 06:00 UTC le lendemain.

Graphiques horaires